createdAt,value
2019-02-05T00:00:30.508Z,0.00
2019-02-05T00:01:30.531Z,0.00
2019-02-05T00:02:30.554Z,0.00
2019-02-05T00:03:30.576Z,0.00
2019-02-05T00:04:30.602Z,0.00
2019-02-05T00:05:30.627Z,0.00
2019-02-05T00:06:30.649Z,0.00
2019-02-05T00:07:30.671Z,0.00
2019-02-05T00:08:30.693Z,0.00
2019-02-05T00:09:30.718Z,0.00
2019-02-05T00:10:30.743Z,0.00
2019-02-05T00:11:30.765Z,0.00
2019-02-05T00:12:30.790Z,0.00
2019-02-05T00:13:30.812Z,0.00
2019-02-05T00:14:30.836Z,0.00
2019-02-05T00:15:30.858Z,0.00
2019-02-05T00:16:31.021Z,0.00
2019-02-05T00:17:30.909Z,0.00
2019-02-05T00:18:30.929Z,0.00
2019-02-05T00:19:30.954Z,0.00
2019-02-05T00:20:30.977Z,0.00
2019-02-05T00:21:31.001Z,0.00
2019-02-05T00:22:31.022Z,0.00
2019-02-05T00:23:31.046Z,0.00
2019-02-05T00:24:31.070Z,0.00
2019-02-05T00:25:31.095Z,0.00
2019-02-05T00:26:31.116Z,0.00
2019-02-05T00:27:31.143Z,0.00
2019-02-05T00:28:31.163Z,0.00
2019-02-05T00:29:31.189Z,0.00
2019-02-05T00:30:31.219Z,0.00
2019-02-05T00:31:31.232Z,0.00
2019-02-05T00:32:31.256Z,0.00
2019-02-05T00:33:31.280Z,0.00
2019-02-05T00:34:31.305Z,0.00
2019-02-05T00:35:31.342Z,0.00
2019-02-05T00:36:31.355Z,0.00
2019-02-05T00:37:31.380Z,0.00
2019-02-05T00:38:31.402Z,0.00
2019-02-05T00:39:31.422Z,0.00
2019-02-05T00:40:31.450Z,0.00
2019-02-05T00:41:31.470Z,0.00
2019-02-05T00:42:31.495Z,0.00
2019-02-05T00:43:31.517Z,0.00
2019-02-05T00:44:31.540Z,0.00
2019-02-05T00:45:31.568Z,0.00
2019-02-05T00:46:31.589Z,0.00
2019-02-05T00:47:32.310Z,0.00
2019-02-05T00:48:31.636Z,0.00
2019-02-05T00:49:31.662Z,0.00
2019-02-05T00:50:31.684Z,0.00
2019-02-05T00:51:31.707Z,0.00
2019-02-05T00:52:31.730Z,0.00
2019-02-05T00:53:31.757Z,0.00
2019-02-05T00:54:31.868Z,0.00
2019-02-05T00:55:31.801Z,0.00
2019-02-05T00:56:31.825Z,0.00
2019-02-05T00:57:31.848Z,0.00
2019-02-05T00:58:31.878Z,0.00
2019-02-05T00:59:31.898Z,0.00
2019-02-05T01:00:31.926Z,0.00
2019-02-05T01:01:31.945Z,0.00
2019-02-05T01:02:31.969Z,0.00
2019-02-05T01:03:31.990Z,0.00
2019-02-05T01:04:32.018Z,0.00
2019-02-05T01:05:32.040Z,0.00
2019-02-05T01:06:32.066Z,0.00
2019-02-05T01:07:32.087Z,0.00
2019-02-05T01:08:32.111Z,0.00
2019-02-05T01:09:32.140Z,0.00
2019-02-05T01:10:32.157Z,0.00
2019-02-05T01:11:32.185Z,0.00
2019-02-05T01:12:32.223Z,0.00
2019-02-05T01:13:32.232Z,0.00
2019-02-05T01:14:32.257Z,0.00
2019-02-05T01:15:32.278Z,0.00
2019-02-05T01:16:32.303Z,0.00
2019-02-05T01:17:32.329Z,0.00
2019-02-05T01:18:32.354Z,0.00
2019-02-05T01:19:32.375Z,0.00
2019-02-05T01:20:32.400Z,0.00
2019-02-05T01:21:32.423Z,0.00
2019-02-05T01:22:32.449Z,0.00
2019-02-05T01:23:32.473Z,0.00
2019-02-05T01:24:32.576Z,0.00
2019-02-05T01:25:32.519Z,0.00
2019-02-05T01:26:32.542Z,0.00
2019-02-05T01:27:32.577Z,0.00
2019-02-05T01:28:32.590Z,0.00
2019-02-05T01:29:32.617Z,0.00
2019-02-05T01:30:32.639Z,0.00
2019-02-05T01:31:32.662Z,0.00
2019-02-05T01:32:32.688Z,0.00
2019-02-05T01:33:32.712Z,0.00
2019-02-05T01:34:32.740Z,0.00
2019-02-05T01:35:32.760Z,0.00
2019-02-05T01:36:32.786Z,0.00
2019-02-05T01:37:32.811Z,0.00
2019-02-05T01:38:32.836Z,0.00
2019-02-05T01:39:32.858Z,0.00
2019-02-05T01:40:32.880Z,0.00
2019-02-05T01:41:32.905Z,0.00
2019-02-05T01:42:32.933Z,0.00
2019-02-05T01:43:32.953Z,0.00
2019-02-05T01:44:33.005Z,0.00
2019-02-05T01:45:33.005Z,0.00
2019-02-05T01:46:33.026Z,0.00
2019-02-05T01:47:33.049Z,0.00
2019-02-05T01:48:33.074Z,0.00
2019-02-05T01:49:33.103Z,0.00
2019-02-05T01:50:33.128Z,0.00
2019-02-05T01:51:33.157Z,0.00
2019-02-05T01:52:33.175Z,0.00
2019-02-05T01:53:33.195Z,0.00
2019-02-05T01:54:33.222Z,0.00
2019-02-05T01:55:33.243Z,0.00
2019-02-05T01:56:40.431Z,0.00
2019-02-05T01:57:33.293Z,0.00
2019-02-05T01:58:33.436Z,0.00
2019-02-05T01:59:33.341Z,0.00
2019-02-05T02:00:33.366Z,0.00
2019-02-05T02:01:33.391Z,0.00
2019-02-05T02:02:33.416Z,0.00
2019-02-05T02:03:33.444Z,0.00
2019-02-05T02:04:33.464Z,0.00
2019-02-05T02:05:33.487Z,0.00
2019-02-05T02:06:33.511Z,0.00
2019-02-05T02:07:33.535Z,0.00
2019-02-05T02:08:33.562Z,0.00
2019-02-05T02:09:33.586Z,0.00
2019-02-05T02:10:33.609Z,0.00
2019-02-05T02:11:33.631Z,0.00
2019-02-05T02:12:33.661Z,0.00
2019-02-05T02:13:33.681Z,0.00
2019-02-05T02:14:33.705Z,0.00
2019-02-05T02:15:33.728Z,0.00
2019-02-05T02:16:33.754Z,0.00
2019-02-05T02:17:33.778Z,0.00
2019-02-05T02:18:33.803Z,0.00
2019-02-05T02:19:33.826Z,0.00
2019-02-05T02:20:33.850Z,0.00
2019-02-05T02:21:33.873Z,0.00
2019-02-05T02:22:33.900Z,0.00
2019-02-05T02:23:33.924Z,0.00
2019-02-05T02:24:33.947Z,0.00
2019-02-05T02:25:33.971Z,0.00
2019-02-05T02:26:33.996Z,0.00
2019-02-05T02:27:34.025Z,0.00
2019-02-05T02:28:34.046Z,0.00
2019-02-05T02:29:34.069Z,0.00
2019-02-05T02:30:34.094Z,0.00
2019-02-05T02:31:34.121Z,0.00
2019-02-05T02:32:34.141Z,0.00
2019-02-05T02:33:34.163Z,0.00
2019-02-05T02:34:34.189Z,0.00
2019-02-05T02:35:34.214Z,0.00
2019-02-05T02:36:34.239Z,0.00
2019-02-05T02:37:34.260Z,0.00
2019-02-05T02:38:34.284Z,0.00
2019-02-05T02:39:34.310Z,0.00
2019-02-05T02:40:34.333Z,0.00
2019-02-05T02:41:34.360Z,0.00
2019-02-05T02:42:34.384Z,0.00
2019-02-05T02:43:34.407Z,0.00
2019-02-05T02:44:34.427Z,0.00
2019-02-05T02:45:34.452Z,0.00
2019-02-05T02:46:34.480Z,0.00
2019-02-05T02:47:34.501Z,0.00
2019-02-05T02:48:34.526Z,0.00
2019-02-05T02:49:34.549Z,0.00
2019-02-05T02:50:34.589Z,0.00
2019-02-05T02:51:34.596Z,0.00
2019-02-05T02:52:34.620Z,0.00
2019-02-05T02:53:34.649Z,0.00
2019-02-05T02:54:34.671Z,0.00
2019-02-05T02:55:34.695Z,0.00
2019-02-05T02:56:34.719Z,0.00
2019-02-05T02:57:34.740Z,0.00
2019-02-05T02:58:34.767Z,0.00
2019-02-05T02:59:34.788Z,0.00
2019-02-05T03:00:34.813Z,0.00
2019-02-05T03:01:34.837Z,0.00
2019-02-05T03:02:34.863Z,0.00
2019-02-05T03:03:34.884Z,0.00
2019-02-05T03:04:34.917Z,0.00
2019-02-05T03:05:34.937Z,0.00
2019-02-05T03:06:34.959Z,0.00
2019-02-05T03:07:34.979Z,0.00
2019-02-05T03:08:35.005Z,0.00
2019-02-05T03:09:35.033Z,0.00
2019-02-05T03:10:35.052Z,0.00
2019-02-05T03:11:35.075Z,0.00
2019-02-05T03:12:35.171Z,0.00
2019-02-05T03:13:35.126Z,0.00
2019-02-05T03:14:35.149Z,0.00
2019-02-05T03:15:35.174Z,0.00
2019-02-05T03:16:35.197Z,0.00
2019-02-05T03:17:35.220Z,0.00
2019-02-05T03:18:35.245Z,0.00
2019-02-05T03:19:35.268Z,0.00
2019-02-05T03:20:35.291Z,0.00
2019-02-05T03:21:35.334Z,0.00
2019-02-05T03:22:35.341Z,0.00
2019-02-05T03:23:35.366Z,0.00
2019-02-05T03:24:35.395Z,0.00
2019-02-05T03:25:35.411Z,0.00
2019-02-05T03:26:35.436Z,0.00
2019-02-05T03:27:35.458Z,0.00
2019-02-05T03:28:35.483Z,0.00
2019-02-05T03:29:35.510Z,0.00
2019-02-05T03:30:35.536Z,0.00
2019-02-05T03:31:35.568Z,0.00
2019-02-05T03:32:35.714Z,0.00
2019-02-05T03:33:35.605Z,0.00
2019-02-05T03:34:35.632Z,0.00
2019-02-05T03:35:35.649Z,0.00
2019-02-05T03:36:35.675Z,0.00
2019-02-05T03:37:35.698Z,0.00
2019-02-05T03:38:35.725Z,0.00
2019-02-05T03:39:35.747Z,0.00
2019-02-05T03:40:35.771Z,0.00
2019-02-05T03:41:35.794Z,0.00
2019-02-05T03:42:35.819Z,0.00
2019-02-05T03:43:35.845Z,0.00
2019-02-05T03:44:35.869Z,0.00
2019-02-05T03:45:36.006Z,0.00
2019-02-05T03:46:35.914Z,0.00
2019-02-05T03:47:35.940Z,0.00
2019-02-05T03:48:35.963Z,0.00
2019-02-05T03:49:35.985Z,0.00
2019-02-05T03:50:36.009Z,0.00
2019-02-05T03:51:36.036Z,0.00
2019-02-05T03:52:36.057Z,0.00
2019-02-05T03:53:36.083Z,0.00
2019-02-05T03:54:36.107Z,0.00
2019-02-05T03:55:36.128Z,0.00
2019-02-05T03:56:36.153Z,0.00
2019-02-05T03:57:36.179Z,0.00
2019-02-05T03:58:36.204Z,0.00
2019-02-05T03:59:36.225Z,0.00
2019-02-05T04:00:36.249Z,0.00
2019-02-05T04:01:36.270Z,0.00
2019-02-05T04:02:36.294Z,0.00
2019-02-05T04:03:36.317Z,0.00
2019-02-05T04:04:36.339Z,0.00
2019-02-05T04:05:36.364Z,0.00
2019-02-05T04:06:36.392Z,0.00
2019-02-05T04:07:36.414Z,0.00
2019-02-05T04:08:36.436Z,0.00
2019-02-05T04:09:36.467Z,0.00
2019-02-05T04:10:36.484Z,0.00
2019-02-05T04:11:36.508Z,0.00
2019-02-05T04:12:36.533Z,0.00
2019-02-05T04:13:36.553Z,0.00
2019-02-05T04:14:36.587Z,0.00
2019-02-05T04:15:36.600Z,0.00
2019-02-05T04:16:36.626Z,0.00
2019-02-05T04:17:36.651Z,0.00
2019-02-05T04:18:36.673Z,0.00
2019-02-05T04:19:36.699Z,0.00
2019-02-05T04:20:36.720Z,0.00
2019-02-05T04:21:36.747Z,0.00
2019-02-05T04:22:36.767Z,0.00
2019-02-05T04:23:36.794Z,0.00
2019-02-05T04:24:36.816Z,0.00
2019-02-05T04:25:36.844Z,0.00
2019-02-05T04:26:36.862Z,0.00
2019-02-05T04:27:44.110Z,0.00
2019-02-05T04:28:36.908Z,0.00
2019-02-05T04:29:36.934Z,0.00
2019-02-05T04:30:36.954Z,0.00
2019-02-05T04:31:36.978Z,0.00
2019-02-05T04:32:37.005Z,0.00
2019-02-05T04:33:37.026Z,0.00
2019-02-05T04:34:37.052Z,0.00
2019-02-05T04:35:37.073Z,0.00
2019-02-05T04:36:37.095Z,0.00
2019-02-05T04:37:37.125Z,0.00
2019-02-05T04:38:37.143Z,0.00
2019-02-05T04:39:37.169Z,0.00
2019-02-05T04:40:37.189Z,0.00
2019-02-05T04:41:37.222Z,0.00
2019-02-05T04:42:37.238Z,0.00
2019-02-05T04:43:37.264Z,0.00
2019-02-05T04:44:37.285Z,0.00
2019-02-05T04:45:37.308Z,0.00
2019-02-05T04:46:37.331Z,0.00
2019-02-05T04:47:37.356Z,0.00
2019-02-05T04:48:37.379Z,0.00
2019-02-05T04:49:37.401Z,0.00
2019-02-05T04:50:37.427Z,0.00
2019-02-05T04:51:37.450Z,0.00
2019-02-05T04:52:37.480Z,0.00
2019-02-05T04:53:37.495Z,0.00
2019-02-05T04:54:37.517Z,0.00
2019-02-05T04:55:37.544Z,0.00
2019-02-05T04:56:37.565Z,0.00
2019-02-05T04:57:37.589Z,0.00
2019-02-05T04:58:37.617Z,0.00
2019-02-05T04:59:37.638Z,0.00
2019-02-05T05:00:37.659Z,0.00
2019-02-05T05:01:37.681Z,0.00
2019-02-05T05:02:37.714Z,0.00
2019-02-05T05:03:37.727Z,0.00
2019-02-05T05:04:37.750Z,0.00
2019-02-05T05:05:37.775Z,0.00
2019-02-05T05:06:37.799Z,0.00
2019-02-05T05:07:37.821Z,0.00
2019-02-05T05:08:37.850Z,0.00
2019-02-05T05:09:37.869Z,0.00
2019-02-05T05:10:37.895Z,0.00
2019-02-05T05:11:40.924Z,0.00
2019-02-05T05:12:37.941Z,0.00
2019-02-05T05:13:37.966Z,0.00
2019-02-05T05:14:37.986Z,0.00
2019-02-05T05:15:38.007Z,0.00
2019-02-05T05:16:38.032Z,0.00
2019-02-05T05:17:38.057Z,0.00
2019-02-05T05:18:38.078Z,0.00
2019-02-05T05:19:38.105Z,0.00
2019-02-05T05:20:38.126Z,0.00
2019-02-05T05:21:38.152Z,0.00
2019-02-05T05:22:38.171Z,0.00
2019-02-05T05:23:38.194Z,0.00
2019-02-05T05:24:38.220Z,0.00
2019-02-05T05:25:38.240Z,0.00
2019-02-05T05:26:38.266Z,0.00
2019-02-05T05:27:38.288Z,0.00
2019-02-05T05:28:38.313Z,0.00
2019-02-05T05:29:38.346Z,0.00
2019-02-05T05:30:38.359Z,0.00
2019-02-05T05:31:38.381Z,0.00
2019-02-05T05:32:38.406Z,0.00
2019-02-05T05:33:38.430Z,0.00
2019-02-05T05:34:38.452Z,0.00
2019-02-05T05:35:43.530Z,0.00
2019-02-05T05:36:38.498Z,0.00
2019-02-05T05:37:38.525Z,0.00
2019-02-05T05:38:38.548Z,0.00
2019-02-05T05:39:38.569Z,4.00
2019-02-05T05:40:38.592Z,4.00
2019-02-05T05:41:38.624Z,0.00
2019-02-05T05:42:38.642Z,0.00
2019-02-05T05:43:38.671Z,4.00
2019-02-05T05:44:38.685Z,0.00
2019-02-05T05:45:38.710Z,4.00
2019-02-05T05:46:38.731Z,4.00
2019-02-05T05:47:38.760Z,4.00
2019-02-05T05:48:38.780Z,8.00
2019-02-05T05:49:38.802Z,4.00
2019-02-05T05:50:38.827Z,4.00
2019-02-05T05:51:38.848Z,8.00
2019-02-05T05:52:38.870Z,8.00
2019-02-05T05:53:38.894Z,12.00
2019-02-05T05:54:38.918Z,12.00
2019-02-05T05:55:38.943Z,16.00
2019-02-05T05:56:38.965Z,16.00
2019-02-05T05:57:38.987Z,20.00
2019-02-05T05:58:39.012Z,20.00
2019-02-05T05:59:39.033Z,28.00
2019-02-05T06:00:39.058Z,28.00
2019-02-05T06:01:39.082Z,32.00
2019-02-05T06:02:39.961Z,36.00
2019-02-05T06:03:39.127Z,40.00
2019-02-05T06:04:39.154Z,40.00
2019-02-05T06:05:39.174Z,48.00
2019-02-05T06:06:39.197Z,56.00
2019-02-05T06:07:39.222Z,60.00
2019-02-05T06:08:39.244Z,68.00
2019-02-05T06:09:39.271Z,76.00
2019-02-05T06:10:39.292Z,84.00
2019-02-05T06:11:39.314Z,96.00
2019-02-05T06:12:39.336Z,108.00
2019-02-05T06:13:39.364Z,124.00
2019-02-05T06:14:39.392Z,136.00
2019-02-05T06:15:39.407Z,148.00
2019-02-05T06:16:39.435Z,160.00
2019-02-05T06:17:39.455Z,180.00
2019-02-05T06:18:39.477Z,196.00
2019-02-05T06:19:39.502Z,216.00
2019-02-05T06:20:39.525Z,236.00
2019-02-05T06:21:39.548Z,256.00
2019-02-05T06:22:39.573Z,264.00
2019-02-05T06:23:39.597Z,300.00
2019-02-05T06:24:39.626Z,320.00
2019-02-05T06:25:39.652Z,328.00
2019-02-05T06:26:39.666Z,344.00
2019-02-05T06:27:39.687Z,368.00
2019-02-05T06:28:39.712Z,376.00
2019-02-05T06:29:39.740Z,376.00
2019-02-05T06:30:39.758Z,412.00
2019-02-05T06:31:39.783Z,448.00
2019-02-05T06:32:39.805Z,464.00
2019-02-05T06:33:39.830Z,464.00
2019-02-05T06:34:39.853Z,516.00
2019-02-05T06:35:39.876Z,560.00
2019-02-05T06:36:39.900Z,580.00
2019-02-05T06:37:39.924Z,624.00
2019-02-05T06:38:39.952Z,704.00
2019-02-05T06:39:40.050Z,748.00
2019-02-05T06:40:40.000Z,744.00
2019-02-05T06:41:40.017Z,828.00
2019-02-05T06:42:40.040Z,880.00
2019-02-05T06:43:40.066Z,964.00
2019-02-05T06:44:40.089Z,984.00
2019-02-05T06:45:41.617Z,1024.00
2019-02-05T06:46:40.135Z,1016.00
2019-02-05T06:47:40.158Z,1016.00
2019-02-05T06:48:40.187Z,964.00
2019-02-05T06:49:40.205Z,964.00
2019-02-05T06:50:40.232Z,976.00
2019-02-05T06:51:40.253Z,980.00
2019-02-05T06:52:40.276Z,976.00
2019-02-05T06:53:40.299Z,1060.00
2019-02-05T06:54:40.331Z,1152.00
2019-02-05T06:55:40.353Z,1184.00
2019-02-05T06:56:42.415Z,1224.00
2019-02-05T06:57:40.398Z,1284.00
2019-02-05T06:58:46.384Z,1260.00
2019-02-05T06:59:40.444Z,1288.00
2019-02-05T07:00:40.470Z,1356.00
2019-02-05T07:01:40.490Z,1396.00
2019-02-05T07:02:40.517Z,1360.00
2019-02-05T07:03:40.535Z,1436.00
2019-02-05T07:04:40.561Z,1416.00
2019-02-05T07:05:40.588Z,1352.00
2019-02-05T07:06:40.608Z,1432.00
2019-02-05T07:07:40.698Z,1488.00
2019-02-05T07:08:42.527Z,1476.00
2019-02-05T07:09:40.680Z,1520.00
2019-02-05T07:10:40.707Z,1588.00
2019-02-05T07:11:40.730Z,1632.00
2019-02-05T07:12:40.749Z,1732.00
2019-02-05T07:13:40.773Z,1912.00
2019-02-05T07:14:40.800Z,2052.00
2019-02-05T07:15:40.914Z,2184.00
2019-02-05T07:16:40.846Z,2196.00
2019-02-05T07:17:49.278Z,2296.00
2019-02-05T07:18:40.895Z,2404.00
2019-02-05T07:19:40.916Z,2652.00
2019-02-05T07:20:40.941Z,2672.00
2019-02-05T07:21:40.965Z,2768.00
2019-02-05T07:22:40.995Z,2832.00
2019-02-05T07:23:41.011Z,2856.00
2019-02-05T07:24:41.039Z,2780.00
2019-02-05T07:25:41.058Z,2836.00
2019-02-05T07:26:41.082Z,3048.00
2019-02-05T07:27:41.108Z,3140.00
2019-02-05T07:28:41.134Z,3020.00
2019-02-05T07:29:41.158Z,3076.00
2019-02-05T07:30:41.179Z,3088.00
2019-02-05T07:31:41.202Z,3080.00
2019-02-05T07:32:41.227Z,3252.00
2019-02-05T07:33:41.252Z,3532.00
2019-02-05T07:34:41.276Z,3576.00
2019-02-05T07:35:41.301Z,3556.00
2019-02-05T07:36:41.324Z,3124.00
2019-02-05T07:37:41.346Z,3124.00
2019-02-05T07:38:41.372Z,3492.00
2019-02-05T07:39:41.394Z,3952.00
2019-02-05T07:40:41.422Z,3676.00
2019-02-05T07:41:41.444Z,3524.00
2019-02-05T07:42:41.467Z,3824.00
2019-02-05T07:43:41.492Z,3800.00
2019-02-05T07:44:41.514Z,3816.00
2019-02-05T07:45:41.537Z,3552.00
2019-02-05T07:46:41.569Z,3412.00
2019-02-05T07:47:41.585Z,3684.00
2019-02-05T07:48:41.610Z,3836.00
2019-02-05T07:49:41.634Z,3980.00
2019-02-05T07:50:41.657Z,3872.00
2019-02-05T07:51:41.682Z,4128.00
2019-02-05T07:52:41.710Z,3952.00
2019-02-05T07:53:41.730Z,4032.00
2019-02-05T07:54:41.754Z,3752.00
2019-02-05T07:55:41.783Z,4116.00
2019-02-05T07:56:41.802Z,4076.00
2019-02-05T07:57:41.835Z,4272.00
2019-02-05T07:58:41.851Z,4376.00
2019-02-05T07:59:41.877Z,3952.00
2019-02-05T08:00:41.898Z,4204.00
2019-02-05T08:01:41.922Z,4148.00
2019-02-05T08:02:41.949Z,3888.00
2019-02-05T08:03:41.970Z,3788.00
2019-02-05T08:04:41.993Z,3748.00
2019-02-05T08:05:42.017Z,3884.00
2019-02-05T08:06:42.043Z,3904.00
2019-02-05T08:07:42.066Z,4020.00
2019-02-05T08:08:42.089Z,4136.00
2019-02-05T08:09:42.114Z,4140.00
2019-02-05T08:10:42.143Z,4144.00
2019-02-05T08:11:42.164Z,4536.00
2019-02-05T08:12:42.188Z,4652.00
2019-02-05T08:13:42.212Z,4800.00
2019-02-05T08:14:42.237Z,4828.00
2019-02-05T08:15:42.261Z,4652.00
2019-02-05T08:16:42.284Z,4476.00
2019-02-05T08:17:42.307Z,4192.00
2019-02-05T08:18:42.332Z,4280.00
2019-02-05T08:19:42.355Z,4280.00
2019-02-05T08:20:42.380Z,4436.00
2019-02-05T08:21:42.407Z,4664.00
2019-02-05T08:22:42.430Z,4744.00
2019-02-05T08:23:42.453Z,4404.00
2019-02-05T08:24:42.481Z,4552.00
2019-02-05T08:25:42.502Z,5084.00
2019-02-05T08:26:42.528Z,4880.00
2019-02-05T08:27:42.553Z,4812.00
2019-02-05T08:28:42.575Z,5080.00
2019-02-05T08:29:42.598Z,5352.00
2019-02-05T08:30:42.624Z,5384.00
2019-02-05T08:31:42.647Z,5504.00
2019-02-05T08:32:42.674Z,5484.00
2019-02-05T08:33:42.696Z,5724.00
2019-02-05T08:34:42.720Z,6500.00
2019-02-05T08:35:42.746Z,7196.00
2019-02-05T08:36:42.768Z,7224.00
2019-02-05T08:37:42.796Z,7288.00
2019-02-05T08:38:42.818Z,6880.00
2019-02-05T08:39:42.840Z,6720.00
2019-02-05T08:40:42.871Z,7244.00
2019-02-05T08:41:42.889Z,6988.00
2019-02-05T08:42:42.914Z,7292.00
2019-02-05T08:43:42.937Z,6924.00
2019-02-05T08:44:42.962Z,7268.00
2019-02-05T08:45:42.987Z,7184.00
2019-02-05T08:46:43.016Z,8252.00
2019-02-05T08:47:43.036Z,7736.00
2019-02-05T08:48:43.061Z,7792.00
2019-02-05T08:49:43.086Z,7716.00
2019-02-05T08:50:43.112Z,7756.00
2019-02-05T08:51:43.133Z,8324.00
2019-02-05T08:52:43.158Z,8060.00
2019-02-05T08:53:43.183Z,8612.00
2019-02-05T08:54:43.209Z,8352.00
2019-02-05T08:55:43.234Z,7896.00
2019-02-05T08:56:43.257Z,8000.00
2019-02-05T08:57:43.283Z,9024.00
2019-02-05T08:58:43.308Z,8744.00
2019-02-05T08:59:43.332Z,8552.00
2019-02-05T09:00:43.361Z,8120.00
2019-02-05T09:01:43.382Z,7820.00
2019-02-05T09:02:43.408Z,8460.00
2019-02-05T09:03:43.430Z,7904.00
2019-02-05T09:04:43.459Z,6948.00
2019-02-05T09:05:43.481Z,7388.00
2019-02-05T09:06:43.506Z,7288.00
2019-02-05T09:07:43.532Z,7080.00
2019-02-05T09:08:43.555Z,7168.00
2019-02-05T09:09:43.578Z,7320.00
2019-02-05T09:10:43.750Z,7124.00
2019-02-05T09:11:43.627Z,7848.00
2019-02-05T09:12:43.654Z,7840.00
2019-02-05T09:13:43.678Z,7788.00
2019-02-05T09:14:43.708Z,7008.00
2019-02-05T09:15:43.727Z,6608.00
2019-02-05T09:16:43.755Z,6836.00
2019-02-05T09:17:43.777Z,6416.00
2019-02-05T09:18:43.804Z,6176.00
2019-02-05T09:19:43.829Z,5916.00
2019-02-05T09:20:43.850Z,6072.00
2019-02-05T09:21:43.876Z,5876.00
2019-02-05T09:22:43.904Z,5588.00
2019-02-05T09:23:43.929Z,5472.00
2019-02-05T09:24:43.950Z,5808.00
2019-02-05T09:25:43.974Z,5684.00
2019-02-05T09:26:44.002Z,6008.00
2019-02-05T09:27:44.025Z,5688.00
2019-02-05T09:28:44.048Z,5692.00
2019-02-05T09:29:44.074Z,6212.00
2019-02-05T09:30:44.102Z,5980.00
2019-02-05T09:31:44.124Z,5868.00
2019-02-05T09:32:44.149Z,5900.00
2019-02-05T09:33:44.173Z,5976.00
2019-02-05T09:34:44.197Z,5760.00
2019-02-05T09:35:44.226Z,5336.00
2019-02-05T09:36:44.245Z,5352.00
2019-02-05T09:37:44.270Z,5356.00
2019-02-05T09:38:44.298Z,5140.00
2019-02-05T09:39:44.318Z,5104.00
2019-02-05T09:40:44.346Z,4980.00
2019-02-05T09:41:44.370Z,4892.00
2019-02-05T09:42:44.396Z,4740.00
2019-02-05T09:43:44.418Z,4680.00
2019-02-05T09:44:44.444Z,4472.00
2019-02-05T09:45:44.470Z,4576.00
2019-02-05T09:46:44.493Z,4384.00
2019-02-05T09:47:44.515Z,4316.00
2019-02-05T09:48:44.542Z,4192.00
2019-02-05T09:49:44.566Z,4144.00
2019-02-05T09:50:45.238Z,4208.00
2019-02-05T09:51:44.614Z,4096.00
2019-02-05T09:52:44.638Z,4504.00
2019-02-05T09:53:44.665Z,4668.00
2019-02-05T09:54:44.690Z,4724.00
2019-02-05T09:55:44.712Z,4624.00
2019-02-05T09:56:44.735Z,4668.00
2019-02-05T09:57:44.761Z,4592.00
2019-02-05T09:58:44.787Z,4592.00
2019-02-05T09:59:45.665Z,4620.00
2019-02-05T10:00:44.838Z,4912.00
2019-02-05T10:01:44.859Z,4972.00
2019-02-05T10:02:44.883Z,5096.00
2019-02-05T10:03:44.915Z,5128.00
2019-02-05T10:04:44.932Z,5176.00
2019-02-05T10:05:44.959Z,5048.00
2019-02-05T10:06:44.982Z,4752.00
2019-02-05T10:07:45.007Z,4716.00
2019-02-05T10:08:45.031Z,4648.00
2019-02-05T10:09:45.057Z,4500.00
2019-02-05T10:10:45.081Z,4540.00
2019-02-05T10:11:45.103Z,4788.00
2019-02-05T10:12:47.110Z,4916.00
2019-02-05T10:13:45.154Z,4900.00
2019-02-05T10:14:45.177Z,5028.00
2019-02-05T10:15:45.203Z,4952.00
2019-02-05T10:16:45.229Z,4964.00
2019-02-05T10:17:45.252Z,5020.00
2019-02-05T10:18:45.964Z,5096.00
2019-02-05T10:19:45.329Z,5360.00
2019-02-05T10:20:45.325Z,5704.00
2019-02-05T10:21:45.352Z,6036.00
2019-02-05T10:22:45.376Z,6312.00
2019-02-05T10:23:45.398Z,6276.00
2019-02-05T10:24:45.424Z,7148.00
2019-02-05T10:25:45.449Z,6992.00
2019-02-05T10:26:45.474Z,7192.00
2019-02-05T10:27:45.496Z,7532.00
2019-02-05T10:28:45.524Z,7260.00
2019-02-05T10:29:56.310Z,7088.00
2019-02-05T10:30:45.571Z,6808.00
2019-02-05T10:31:45.599Z,6568.00
2019-02-05T10:32:45.624Z,6436.00
2019-02-05T10:33:55.011Z,6552.00
2019-02-05T10:34:45.670Z,6384.00
2019-02-05T10:35:45.694Z,6228.00
2019-02-05T10:36:45.722Z,6144.00
2019-02-05T10:37:45.746Z,6492.00
2019-02-05T10:38:45.771Z,6356.00
2019-02-05T10:39:45.797Z,6348.00
2019-02-05T10:40:45.821Z,6576.00
2019-02-05T10:41:45.843Z,6860.00
2019-02-05T10:42:45.872Z,7032.00
2019-02-05T10:43:45.893Z,7188.00
2019-02-05T10:44:45.923Z,7340.00
2019-02-05T10:45:45.945Z,7372.00
2019-02-05T10:46:45.968Z,7544.00
2019-02-05T10:47:45.992Z,7392.00
2019-02-05T10:48:46.017Z,6788.00
2019-02-05T10:49:46.047Z,6944.00
2019-02-05T10:50:46.065Z,6668.00
2019-02-05T10:51:46.091Z,6884.00
2019-02-05T10:52:46.117Z,6964.00
2019-02-05T10:53:46.142Z,7388.00
2019-02-05T10:54:46.165Z,7524.00
2019-02-05T10:55:46.190Z,7960.00
2019-02-05T10:56:46.216Z,8136.00
2019-02-05T10:57:46.244Z,7772.00
2019-02-05T10:58:46.265Z,7688.00
2019-02-05T10:59:46.291Z,8116.00
2019-02-05T11:00:46.317Z,8452.00
2019-02-05T11:01:46.341Z,8864.00
2019-02-05T11:02:46.366Z,8584.00
2019-02-05T11:03:46.390Z,8988.00
2019-02-05T11:04:46.417Z,8452.00
2019-02-05T11:05:46.449Z,7808.00
2019-02-05T11:06:46.465Z,7428.00
2019-02-05T11:07:46.491Z,7072.00
2019-02-05T11:08:46.515Z,6992.00
2019-02-05T11:09:46.544Z,6692.00
2019-02-05T11:10:46.566Z,6552.00
2019-02-05T11:11:46.594Z,6252.00
2019-02-05T11:12:46.618Z,6080.00
2019-02-05T11:13:46.643Z,5908.00
2019-02-05T11:14:46.678Z,6352.00
2019-02-05T11:15:46.691Z,6156.00
2019-02-05T11:16:46.717Z,6568.00
2019-02-05T11:17:46.745Z,6212.00
2019-02-05T11:18:46.769Z,5924.00
2019-02-05T11:19:46.883Z,5680.00
2019-02-05T11:20:46.819Z,5624.00
2019-02-05T11:21:46.843Z,5904.00
2019-02-05T11:22:46.872Z,6180.00
2019-02-05T11:23:46.896Z,5852.00
2019-02-05T11:24:46.918Z,5708.00
2019-02-05T11:25:46.944Z,5580.00
2019-02-05T11:26:46.973Z,6068.00
2019-02-05T11:27:46.997Z,6296.00
2019-02-05T11:28:47.018Z,6372.00
2019-02-05T11:29:47.043Z,6252.00
2019-02-05T11:30:47.074Z,6192.00
2019-02-05T11:31:47.094Z,5976.00
2019-02-05T11:32:47.124Z,5580.00
2019-02-05T11:33:47.145Z,5628.00
2019-02-05T11:34:47.168Z,5560.00
2019-02-05T11:35:47.194Z,5580.00
2019-02-05T11:36:47.218Z,5484.00
2019-02-05T11:37:47.246Z,5644.00
2019-02-05T11:38:47.270Z,5600.00
2019-02-05T11:39:47.294Z,5496.00
2019-02-05T11:40:47.321Z,5584.00
2019-02-05T11:41:47.348Z,5704.00
2019-02-05T11:42:47.374Z,5452.00
2019-02-05T11:43:47.394Z,5672.00
2019-02-05T11:44:47.421Z,5828.00
2019-02-05T11:45:47.443Z,5520.00
2019-02-05T11:46:47.469Z,5232.00
2019-02-05T11:47:47.493Z,5168.00
2019-02-05T11:48:47.521Z,5372.00
2019-02-05T11:49:47.543Z,5308.00
2019-02-05T11:50:47.570Z,4960.00
2019-02-05T11:51:47.592Z,5104.00
2019-02-05T11:52:47.617Z,5012.00
2019-02-05T11:53:47.643Z,4740.00
2019-02-05T11:54:47.668Z,4884.00
2019-02-05T11:55:47.696Z,4740.00
2019-02-05T11:56:47.722Z,5468.00
2019-02-05T11:57:47.746Z,5408.00
2019-02-05T11:58:47.768Z,5516.00
2019-02-05T11:59:47.791Z,5652.00
2019-02-05T12:00:47.818Z,5952.00
2019-02-05T12:01:47.844Z,5420.00
2019-02-05T12:02:49.111Z,6168.00
2019-02-05T12:03:47.891Z,7328.00
2019-02-05T12:04:47.918Z,7588.00
2019-02-05T12:05:47.945Z,7660.00
2019-02-05T12:06:47.971Z,7496.00
2019-02-05T12:07:47.993Z,7060.00
2019-02-05T12:08:48.020Z,6948.00
2019-02-05T12:09:48.045Z,7388.00
2019-02-05T12:10:48.072Z,6624.00
2019-02-05T12:11:48.094Z,6556.00
2019-02-05T12:12:48.118Z,6500.00
2019-02-05T12:13:48.143Z,6280.00
2019-02-05T12:14:50.366Z,6716.00
2019-02-05T12:15:48.196Z,6520.00
2019-02-05T12:16:48.219Z,7064.00
2019-02-05T12:17:48.244Z,7492.00
2019-02-05T12:18:48.270Z,7288.00
2019-02-05T12:19:48.293Z,6984.00
2019-02-05T12:20:48.317Z,6652.00
2019-02-05T12:21:48.345Z,5956.00
2019-02-05T12:22:48.368Z,5912.00
2019-02-05T12:23:48.393Z,6636.00
2019-02-05T12:24:48.418Z,6684.00
2019-02-05T12:25:48.444Z,6356.00
2019-02-05T12:26:48.473Z,6360.00
2019-02-05T12:27:48.496Z,6460.00
2019-02-05T12:28:48.521Z,6232.00
2019-02-05T12:29:48.544Z,6400.00
2019-02-05T12:30:48.571Z,6812.00
2019-02-05T12:31:48.596Z,6868.00
2019-02-05T12:32:48.624Z,6964.00
2019-02-05T12:33:48.648Z,7392.00
2019-02-05T12:34:48.672Z,7460.00
2019-02-05T12:35:48.697Z,7120.00
2019-02-05T12:36:48.726Z,7336.00
2019-02-05T12:37:48.748Z,7676.00
2019-02-05T12:38:48.775Z,7952.00
2019-02-05T12:39:48.797Z,8200.00
2019-02-05T12:40:48.828Z,8344.00